Leonardo — IAZA — position and weather

sailwx.info

Track history (hours):
 
Tides and Currents Weather Stations Pressure Air Temp Water Temp Dewpoint Dewpoint Depression Visibility Wind Speed Wind Dir Waves Ship Positions

Leonardo

Last reported at 2014-Oct-25 16:32 UTC. Time now 2014-Oct-25 17:29 UTC.
Position N 44°06' E 009°52'.

Length 28 m; draft 2.7 m.

MMSI: 247155800.

Date/timePositionNaut miles runAvg speedWind from/ knotsBaromVisibWave heightAir tempDewpointWater temp
2014-Oct-25 16:32N 44°06' E 009°52'0 0.0
2014-Oct-25 15:32N 44°06' E 009°52'0 0.0
2014-Oct-25 14:32N 44°06' E 009°52'0 0.0
2014-Oct-25 13:32N 44°06' E 009°52'3 2.9
2014-Oct-25 12:33N 44°03' E 009°52'6 5.6
2014-Oct-25 11:33N 43°59' E 009°46'2 2.5
2014-Oct-25 10:33N 43°59' E 009°43'0 0.4
2014-Oct-25 09:33N 43°60' E 009°43'1 1.4
2014-Oct-25 08:33N 44°01' E 009°43'2 2.2
2014-Oct-25 07:34N 44°02' E 009°46'6 5.8
2014-Oct-25 06:34N 44°06' E 009°52'0 0.1
2014-Oct-25 05:32N 44°06' E 009°52'0 0.0
2014-Oct-25 04:31N 44°06' E 009°52'0 0.0
2014-Oct-25 03:31N 44°06' E 009°52'0 0.0
2014-Oct-25 02:31N 44°06' E 009°52'0 0.0
2014-Oct-25 01:33N 44°06' E 009°52'0 0.0
2014-Oct-25 00:33N 44°06' E 009°52'0 0.0
2014-Oct-24 23:32N 44°06' E 009°52'0 0.0
2014-Oct-24 22:32N 44°06' E 009°52'0 0.0
2014-Oct-24 21:31N 44°06' E 009°52'0 0.0
2014-Oct-24 20:31N 44°06' E 009°52'0 0.0
2014-Oct-24 19:31N 44°06' E 009°52'0 0.0
2014-Oct-24 18:33N 44°06' E 009°52'0 0.0
2014-Oct-24 17:33N 44°06' E 009°52'0 0.0
2014-Oct-24 16:32N 44°06' E 009°52'0 0.0
2014-Oct-24 15:32N 44°06' E 009°52'0 0.0
2014-Oct-24 14:31N 44°06' E 009°52'0 0.0
2014-Oct-24 13:31N 44°06' E 009°52'0 0.0
2014-Oct-24 12:31N 44°06' E 009°52'0 0.0
2014-Oct-24 11:33N 44°06' E 009°52'0 0.0
2014-Oct-24 10:33N 44°06' E 009°52'0 0.0
2014-Oct-24 09:32N 44°06' E 009°52'0 0.0
2014-Oct-24 08:32N 44°06' E 009°52'0 0.0
2014-Oct-24 07:31N 44°06' E 009°52'0 0.0
2014-Oct-24 06:31N 44°06' E 009°52'0 0.0
2014-Oct-24 05:33N 44°06' E 009°52'0 0.0
2014-Oct-24 04:33N 44°06' E 009°52'0 0.0
2014-Oct-24 03:33N 44°06' E 009°52'0 0.0
2014-Oct-24 02:32N 44°06' E 009°52'0 0.0
2014-Oct-24 01:32N 44°06' E 009°52'0 0.0
2014-Oct-24 00:31N 44°06' E 009°52'0 0.0
2014-Oct-23 23:31N 44°06' E 009°52'0 0.0
2014-Oct-23 22:33N 44°06' E 009°52'0 0.0
2014-Oct-23 21:33N 44°06' E 009°52'0 0.0
2014-Oct-23 20:33N 44°06' E 009°52'0 0.0
2014-Oct-23 19:32N 44°06' E 009°52'0 0.0
2014-Oct-23 18:32N 44°06' E 009°52'0 0.0
2014-Oct-23 17:31N 44°06' E 009°52'0 0.0
2014-Oct-23 16:31N 44°06' E 009°52'0 0.0
2014-Oct-23 15:33N 44°06' E 009°52'0 0.0
2014-Oct-23 14:33N 44°06' E 009°52'0 0.0
2014-Oct-23 13:33N 44°06' E 009°52'0 0.0
2014-Oct-23 12:29N 44°06' E 009°52'0 0.0
2014-Oct-23 11:32N 44°06' E 009°52'0 0.0
2014-Oct-23 10:28N 44°06' E 009°52'0 0.0
2014-Oct-23 09:31N 44°06' E 009°52'0 0.0
2014-Oct-23 08:33N 44°06' E 009°52'0 0.0
2014-Oct-23 07:33N 44°06' E 009°52'0 0.0
2014-Oct-23 06:33N 44°06' E 009°52'0 0.0
2014-Oct-23 05:32N 44°06' E 009°52'0 0.0
2014-Oct-23 04:32N 44°06' E 009°52'0 0.0
2014-Oct-23 03:31N 44°06' E 009°52'0 0.0
2014-Oct-23 02:31N 44°06' E 009°52'0 0.0
2014-Oct-23 01:33N 44°06' E 009°52'0 0.0
2014-Oct-23 00:33N 44°06' E 009°52'0 0.0
2014-Oct-22 23:33N 44°06' E 009°52'0 0.0
2014-Oct-22 22:32N 44°06' E 009°52'0 0.0
2014-Oct-22 21:32N 44°06' E 009°52'0 0.0
2014-Oct-22 20:31N 44°06' E 009°52'0 0.0
2014-Oct-22 19:31N 44°06' E 009°52'0 0.0
2014-Oct-22 18:33N 44°06' E 009°52'0 0.0
2014-Oct-22 17:30N 44°06' E 009°52'0 0.0
2014-Oct-22 16:32N 44°06' E 009°52'0 0.0
2014-Oct-22 15:32N 44°06' E 009°52'0 0.0
2014-Oct-22 14:32N 44°06' E 009°52'0 0.0
2014-Oct-22 13:31N 44°06' E 009°52'0 0.0
2014-Oct-22 12:31N 44°06' E 009°52'0 0.0
2014-Oct-22 11:33N 44°06' E 009°52'0 0.0
2014-Oct-22 10:33N 44°06' E 009°52'0 0.0
2014-Oct-22 09:32N 44°06' E 009°52'0 0.0
2014-Oct-22 08:32N 44°06' E 009°52'0 0.0
2014-Oct-22 07:32N 44°06' E 009°52'0 0.0
2014-Oct-22 06:31N 44°06' E 009°52'0 0.0
2014-Oct-22 05:28N 44°06' E 009°52'0 0.0
2014-Oct-22 04:30N 44°06' E 009°52'0 0.0
2014-Oct-22 03:33N 44°06' E 009°52'0 0.0
2014-Oct-22 02:32N 44°06' E 009°52'0 0.0
2014-Oct-22 01:32N 44°06' E 009°52'0 0.0
2014-Oct-22 00:28N 44°06' E 009°52'0 0.0
2014-Oct-21 23:31N 44°06' E 009°52'0 0.0
2014-Oct-21 22:31N 44°06' E 009°52'0 0.0
2014-Oct-21 21:33N 44°06' E 009°52'0 0.0
2014-Oct-21 20:33N 44°06' E 009°52'0 0.0
2014-Oct-21 19:29N 44°06' E 009°52'0 0.0
2014-Oct-21 18:32N 44°06' E 009°52'0 0.0
2014-Oct-21 17:31N 44°06' E 009°52'0 0.0
2014-Oct-21 16:31N 44°06' E 009°52'0 0.0
2014-Oct-21 15:31N 44°06' E 009°52'0 0.0
2014-Oct-21 14:33N 44°06' E 009°52'0 0.0
2014-Oct-21 13:33N 44°06' E 009°52'0 0.0
2014-Oct-21 12:29N 44°06' E 009°52'0 0.0
2014-Oct-21 11:32N 44°06' E 009°52'0 0.0
2014-Oct-21 10:31N 44°06' E 009°52'0 0.0
2014-Oct-21 09:31N 44°06' E 009°52'0 0.0
2014-Oct-21 08:31N 44°06' E 009°52'0 0.0
2014-Oct-21 07:33N 44°06' E 009°52'0 0.0
2014-Oct-21 06:33N 44°06' E 009°52'0 0.0
2014-Oct-21 05:32N 44°06' E 009°52'0 0.1
2014-Oct-21 04:32N 44°06' E 009°52'0 0.0
2014-Oct-21 03:31N 44°06' E 009°52'0 0.0
2014-Oct-21 02:31N 44°06' E 009°52'0 0.0
2014-Oct-21 01:34N 44°06' E 009°52'0 0.0
2014-Oct-21 00:33N 44°06' E 009°52'0 0.0
2014-Oct-20 23:33N 44°06' E 009°52'0 0.0
2014-Oct-20 22:32N 44°06' E 009°52'0 0.0
2014-Oct-20 21:32N 44°06' E 009°52'0 0.0
2014-Oct-20 20:31N 44°06' E 009°52'0 0.0
2014-Oct-20 19:31N 44°06' E 009°52'0 0.0
2014-Oct-20 18:34N 44°06' E 009°52'0 0.0
2014-Oct-20 17:33N 44°06' E 009°52'0 0.0
2014-Oct-20 16:33N 44°06' E 009°52'0 0.2
2014-Oct-20 15:33N 44°06' E 009°52'8 7.6
2014-Oct-20 14:33N 43°58' E 009°55'8 8.4
2014-Oct-20 13:33N 43°50' E 009°59'9 8.5
2014-Oct-20 12:33N 43°42' E 010°02'8 8.2
2014-Oct-20 11:33N 43°34' E 010°04'8 8.4
2014-Oct-20 10:33N 43°26' E 010°07'9 8.6
2014-Oct-20 09:33N 43°18' E 010°12'8 8.4
2014-Oct-20 08:33N 43°10' E 010°16'  
Track history (hours):
 
Tides and Currents Weather Stations Pressure Air Temp Water Temp Dewpoint Dewpoint Depression Visibility Wind Speed Wind Dir Waves Ship Positions

Leonardo

Last reported at 2014-Oct-25 16:32 UTC. Time now 2014-Oct-25 17:29 UTC.
Position N 44°06' E 009°52'.

Length 28 m; draft 2.7 m.

MMSI: 247155800.

Date/timePositionNaut miles runAvg speedWind from/ knotsBaromVisibWave heightAir tempDewpointWater temp
2014-Oct-25 16:32N 44°06' E 009°52'0 0.0
2014-Oct-25 15:32N 44°06' E 009°52'0 0.0
2014-Oct-25 14:32N 44°06' E 009°52'0 0.0
2014-Oct-25 13:32N 44°06' E 009°52'3 2.9
2014-Oct-25 12:33N 44°03' E 009°52'6 5.6
2014-Oct-25 11:33N 43°59' E 009°46'2 2.5
2014-Oct-25 10:33N 43°59' E 009°43'0 0.4
2014-Oct-25 09:33N 43°60' E 009°43'1 1.4
2014-Oct-25 08:33N 44°01' E 009°43'2 2.2
2014-Oct-25 07:34N 44°02' E 009°46'6 5.8
2014-Oct-25 06:34N 44°06' E 009°52'0 0.1
2014-Oct-25 05:32N 44°06' E 009°52'0 0.0
2014-Oct-25 04:31N 44°06' E 009°52'0 0.0
2014-Oct-25 03:31N 44°06' E 009°52'0 0.0
2014-Oct-25 02:31N 44°06' E 009°52'0 0.0
2014-Oct-25 01:33N 44°06' E 009°52'0 0.0
2014-Oct-25 00:33N 44°06' E 009°52'0 0.0
2014-Oct-24 23:32N 44°06' E 009°52'0 0.0
2014-Oct-24 22:32N 44°06' E 009°52'0 0.0
2014-Oct-24 21:31N 44°06' E 009°52'0 0.0
2014-Oct-24 20:31N 44°06' E 009°52'0 0.0
2014-Oct-24 19:31N 44°06' E 009°52'0 0.0
2014-Oct-24 18:33N 44°06' E 009°52'0 0.0
2014-Oct-24 17:33N 44°06' E 009°52'0 0.0
2014-Oct-24 16:32N 44°06' E 009°52'0 0.0
2014-Oct-24 15:32N 44°06' E 009°52'0 0.0
2014-Oct-24 14:31N 44°06' E 009°52'0 0.0
2014-Oct-24 13:31N 44°06' E 009°52'0 0.0
2014-Oct-24 12:31N 44°06' E 009°52'0 0.0
2014-Oct-24 11:33N 44°06' E 009°52'0 0.0
2014-Oct-24 10:33N 44°06' E 009°52'0 0.0
2014-Oct-24 09:32N 44°06' E 009°52'0 0.0
2014-Oct-24 08:32N 44°06' E 009°52'0 0.0
2014-Oct-24 07:31N 44°06' E 009°52'0 0.0
2014-Oct-24 06:31N 44°06' E 009°52'0 0.0
2014-Oct-24 05:33N 44°06' E 009°52'0 0.0
2014-Oct-24 04:33N 44°06' E 009°52'0 0.0
2014-Oct-24 03:33N 44°06' E 009°52'0 0.0
2014-Oct-24 02:32N 44°06' E 009°52'0 0.0
2014-Oct-24 01:32N 44°06' E 009°52'0 0.0
2014-Oct-24 00:31N 44°06' E 009°52'0 0.0
2014-Oct-23 23:31N 44°06' E 009°52'0 0.0
2014-Oct-23 22:33N 44°06' E 009°52'0 0.0
2014-Oct-23 21:33N 44°06' E 009°52'0 0.0
2014-Oct-23 20:33N 44°06' E 009°52'0 0.0
2014-Oct-23 19:32N 44°06' E 009°52'0 0.0
2014-Oct-23 18:32N 44°06' E 009°52'0 0.0
2014-Oct-23 17:31N 44°06' E 009°52'0 0.0
2014-Oct-23 16:31N 44°06' E 009°52'0 0.0
2014-Oct-23 15:33N 44°06' E 009°52'0 0.0
2014-Oct-23 14:33N 44°06' E 009°52'0 0.0
2014-Oct-23 13:33N 44°06' E 009°52'0 0.0
2014-Oct-23 12:29N 44°06' E 009°52'0 0.0
2014-Oct-23 11:32N 44°06' E 009°52'0 0.0
2014-Oct-23 10:28N 44°06' E 009°52'0 0.0
2014-Oct-23 09:31N 44°06' E 009°52'0 0.0
2014-Oct-23 08:33N 44°06' E 009°52'0 0.0
2014-Oct-23 07:33N 44°06' E 009°52'0 0.0
2014-Oct-23 06:33N 44°06' E 009°52'0 0.0
2014-Oct-23 05:32N 44°06' E 009°52'0 0.0
2014-Oct-23 04:32N 44°06' E 009°52'0 0.0
2014-Oct-23 03:31N 44°06' E 009°52'0 0.0
2014-Oct-23 02:31N 44°06' E 009°52'0 0.0
2014-Oct-23 01:33N 44°06' E 009°52'0 0.0
2014-Oct-23 00:33N 44°06' E 009°52'0 0.0
2014-Oct-22 23:33N 44°06' E 009°52'0 0.0
2014-Oct-22 22:32N 44°06' E 009°52'0 0.0
2014-Oct-22 21:32N 44°06' E 009°52'0 0.0
2014-Oct-22 20:31N 44°06' E 009°52'0 0.0
2014-Oct-22 19:31N 44°06' E 009°52'0 0.0
2014-Oct-22 18:33N 44°06' E 009°52'0 0.0
2014-Oct-22 17:30N 44°06' E 009°52'0 0.0
2014-Oct-22 16:32N 44°06' E 009°52'0 0.0
2014-Oct-22 15:32N 44°06' E 009°52'0 0.0
2014-Oct-22 14:32N 44°06' E 009°52'0 0.0
2014-Oct-22 13:31N 44°06' E 009°52'0 0.0
2014-Oct-22 12:31N 44°06' E 009°52'0 0.0
2014-Oct-22 11:33N 44°06' E 009°52'0 0.0
2014-Oct-22 10:33N 44°06' E 009°52'0 0.0
2014-Oct-22 09:32N 44°06' E 009°52'0 0.0
2014-Oct-22 08:32N 44°06' E 009°52'0 0.0
2014-Oct-22 07:32N 44°06' E 009°52'0 0.0
2014-Oct-22 06:31N 44°06' E 009°52'0 0.0
2014-Oct-22 05:28N 44°06' E 009°52'0 0.0
2014-Oct-22 04:30N 44°06' E 009°52'0 0.0
2014-Oct-22 03:33N 44°06' E 009°52'0 0.0
2014-Oct-22 02:32N 44°06' E 009°52'0 0.0
2014-Oct-22 01:32N 44°06' E 009°52'0 0.0
2014-Oct-22 00:28N 44°06' E 009°52'0 0.0
2014-Oct-21 23:31N 44°06' E 009°52'0 0.0
2014-Oct-21 22:31N 44°06' E 009°52'0 0.0
2014-Oct-21 21:33N 44°06' E 009°52'0 0.0
2014-Oct-21 20:33N 44°06' E 009°52'0 0.0
2014-Oct-21 19:29N 44°06' E 009°52'0 0.0
2014-Oct-21 18:32N 44°06' E 009°52'0 0.0
2014-Oct-21 17:31N 44°06' E 009°52'0 0.0
2014-Oct-21 16:31N 44°06' E 009°52'0 0.0
2014-Oct-21 15:31N 44°06' E 009°52'0 0.0
2014-Oct-21 14:33N 44°06' E 009°52'0 0.0
2014-Oct-21 13:33N 44°06' E 009°52'0 0.0
2014-Oct-21 12:29N 44°06' E 009°52'0 0.0
2014-Oct-21 11:32N 44°06' E 009°52'0 0.0
2014-Oct-21 10:31N 44°06' E 009°52'0 0.0
2014-Oct-21 09:31N 44°06' E 009°52'0 0.0
2014-Oct-21 08:31N 44°06' E 009°52'0 0.0
2014-Oct-21 07:33N 44°06' E 009°52'0 0.0
2014-Oct-21 06:33N 44°06' E 009°52'0 0.0
2014-Oct-21 05:32N 44°06' E 009°52'0 0.1
2014-Oct-21 04:32N 44°06' E 009°52'0 0.0
2014-Oct-21 03:31N 44°06' E 009°52'0 0.0
2014-Oct-21 02:31N 44°06' E 009°52'0 0.0
2014-Oct-21 01:34N 44°06' E 009°52'0 0.0
2014-Oct-21 00:33N 44°06' E 009°52'0 0.0
2014-Oct-20 23:33N 44°06' E 009°52'0 0.0
2014-Oct-20 22:32N 44°06' E 009°52'0 0.0
2014-Oct-20 21:32N 44°06' E 009°52'0 0.0
2014-Oct-20 20:31N 44°06' E 009°52'0 0.0
2014-Oct-20 19:31N 44°06' E 009°52'0 0.0
2014-Oct-20 18:34N 44°06' E 009°52'0 0.0
2014-Oct-20 17:33N 44°06' E 009°52'0 0.0
2014-Oct-20 16:33N 44°06' E 009°52'0 0.2
2014-Oct-20 15:33N 44°06' E 009°52'8 7.6
2014-Oct-20 14:33N 43°58' E 009°55'8 8.4
2014-Oct-20 13:33N 43°50' E 009°59'9 8.5
2014-Oct-20 12:33N 43°42' E 010°02'8 8.2
2014-Oct-20 11:33N 43°34' E 010°04'8 8.4
2014-Oct-20 10:33N 43°26' E 010°07'9 8.6
2014-Oct-20 09:33N 43°18' E 010°12'8 8.4
2014-Oct-20 08:33N 43°10' E 010°16'  

Dump ship's entire track history